Time;durP1;ratioP1;P1;durP2;ratioP2;P2;SDS_P1;SDS_P2;PMS_P1;PMS_P2;Temp;Humidity;BMP_temperature;BMP_pressure;BME280_temperature;BME280_humidity;BME280_pressure;Samples;Min_cycle;Max_cycle;Signal;HPM_P1;HPM_P2
2023/07/18 00:05:34;;;;;;;;;23.25;21.25;;;;;;;;6487238;39;9555;-51
2023/07/18 00:11:39;;;;;;;;;20.75;17.25;;;;;;;;6486499;31;8868;-55
2023/07/18 00:17:43;;;;;;;;;23.00;22.50;;;;;;;;6486578;39;8879;-54
2023/07/18 00:23:47;;;;;;;;;24.75;23.75;;;;;;;;6487104;31;8856;-52
2023/07/18 00:29:50;;;;;;;;;25.25;24.00;;;;;;;;6486553;47;8903;-53
2023/07/18 00:35:52;;;;;;;;;25.25;23.50;;;;;;;;6488784;46;8927;-54
2023/07/18 00:41:55;;;;;;;;;27.00;23.00;;;;;;;;6488927;46;8884;-52
2023/07/18 00:47:57;;;;;;;;;31.25;27.25;;;;;;;;6489049;39;9012;-55
2023/07/18 00:54:02;;;;;;;;;21.75;19.50;;;;;;;;6489012;39;8875;-52
2023/07/18 01:00:11;;;;;;;;;21.50;18.00;;;;;;;;6486696;39;8990;-53
2023/07/18 01:06:13;;;;;;;;;19.00;19.00;;;;;;;;6488991;39;9568;-56
2023/07/18 01:12:16;;;;;;;;;22.25;19.25;;;;;;;;6489338;46;9397;-51
2023/07/18 01:18:18;;;;;;;;;15.25;15.25;;;;;;;;6488793;39;8927;-52
2023/07/18 01:24:22;;;;;;;;;20.25;19.25;;;;;;;;6488305;39;8932;-50
2023/07/18 01:30:26;;;;;;;;;22.75;19.50;;;;;;;;6488334;39;8904;-52
2023/07/18 01:36:29;;;;;;;;;18.00;18.00;;;;;;;;6489114;39;8912;-56
2023/07/18 01:42:32;;;;;;;;;17.00;17.00;;;;;;;;6488875;39;8832;-52
2023/07/18 01:48:36;;;;;;;;;20.25;16.50;;;;;;;;6488777;39;8864;-54
2023/07/18 01:54:41;;;;;;;;;21.00;19.25;;;;;;;;6489084;39;9448;-53
2023/07/18 02:00:43;;;;;;;;;18.25;17.25;;;;;;;;6487951;31;8884;-53
2023/07/18 02:06:45;;;;;;;;;19.25;18.25;;;;;;;;6488028;46;9013;-52
2023/07/18 02:12:49;;;;;;;;;19.25;19.00;;;;;;;;6486770;46;8875;-51
2023/07/18 02:18:53;;;;;;;;;16.75;16.50;;;;;;;;6488438;46;8899;-51
2023/07/18 02:24:57;;;;;;;;;20.00;18.50;;;;;;;;6508883;36;8885;-54
2023/07/18 02:30:59;;;;;;;;;17.00;16.25;;;;;;;;6488014;39;8864;-53
2023/07/18 02:37:03;;;;;;;;;19.25;18.50;;;;;;;;6489017;39;8892;-50
2023/07/18 02:43:06;;;;;;;;;18.00;18.00;;;;;;;;6408145;36;5001362;-52
2023/07/18 02:49:09;;;;;;;;;20.00;17.25;;;;;;;;6487499;39;8879;-52
2023/07/18 02:55:12;;;;;;;;;20.50;19.00;;;;;;;;6487244;46;8917;-52
2023/07/18 03:01:18;;;;;;;;;19.00;18.00;;;;;;;;6487234;39;9503;-54
2023/07/18 03:07:21;;;;;;;;;18.00;18.00;;;;;;;;6487216;39;8917;-50
2023/07/18 03:13:27;;;;;;;;;19.50;18.00;;;;;;;;6487630;39;8958;-54
2023/07/18 03:19:31;;;;;;;;;20.75;17.50;;;;;;;;6487671;31;8833;-52
2023/07/18 03:25:37;;;;;;;;;18.75;18.50;;;;;;;;6488135;39;8931;-56
2023/07/18 03:31:39;;;;;;;;;16.75;16.25;;;;;;;;6487777;39;8952;-55
2023/07/18 03:37:42;;;;;;;;;22.00;19.25;;;;;;;;6488205;39;8841;-54
2023/07/18 03:43:44;;;;;;;;;18.75;17.50;;;;;;;;6487208;46;8853;-53
2023/07/18 03:49:47;;;;;;;;;19.25;17.50;;;;;;;;6486445;31;8904;-55
2023/07/18 03:55:50;;;;;;;;;20.50;19.75;;;;;;;;6488358;39;9020;-52
2023/07/18 04:02:07;;;;;;;;;20.25;19.00;;;;;;;;6462012;47;9091;-51
2023/07/18 04:08:11;;;;;;;;;21.00;21.00;;;;;;;;6487615;39;8965;-51
2023/07/18 07:19:10;;;;;;;;;17.75;17.75;;;;;;;;6491672;39;8997;-55
2023/07/18 07:25:15;;;;;;;;;24.50;23.75;;;;;;;;6488443;31;9024;-53
2023/07/18 07:31:17;;;;;;;;;24.25;24.25;;;;;;;;6489152;31;8894;-54
2023/07/18 07:37:20;;;;;;;;;21.50;21.50;;;;;;;;6487490;31;9031;-54
2023/07/18 07:43:24;;;;;;;;;26.00;25.00;;;;;;;;6485224;31;9068;-53
2023/07/18 07:49:27;;;;;;;;;24.00;24.00;;;;;;;;8200929;36;9044;-54
2023/07/18 07:55:30;;;;;;;;;23.75;23.75;;;;;;;;6486755;39;10048;-54
2023/07/18 08:01:32;;;;;;;;;22.00;20.50;;;;;;;;6487519;39;9010;-56
2023/07/18 08:07:39;;;;;;;;;23.25;21.50;;;;;;;;6485985;31;9039;-54
2023/07/18 08:13:42;;;;;;;;;24.25;21.00;;;;;;;;6487026;39;9047;-53
2023/07/18 08:19:45;;;;;;;;;21.25;21.25;;;;;;;;6486716;39;9506;-56
2023/07/18 08:25:47;;;;;;;;;22.75;20.75;;;;;;;;6486565;31;8921;-54
2023/07/18 08:31:50;;;;;;;;;20.25;18.50;;;;;;;;6482749;39;9013;-52
2023/07/18 08:37:57;;;;;;;;;27.00;24.75;;;;;;;;6485665;39;8922;-54
2023/07/18 08:44:00;;;;;;;;;25.75;25.75;;;;;;;;6486535;39;9640;-54
2023/07/18 08:50:09;;;;;;;;;17.00;17.00;;;;;;;;6485293;39;8953;-53
2023/07/18 08:56:13;;;;;;;;;28.50;24.25;;;;;;;;6482232;46;8967;-54
2023/07/18 09:02:15;;;;;;;;;24.25;22.25;;;;;;;;6486266;31;8961;-55
2023/07/18 09:08:18;;;;;;;;;24.50;23.75;;;;;;;;6486486;39;8926;-52
2023/07/18 09:14:26;;;;;;;;;21.00;21.00;;;;;;;;6486730;39;9601;-55
2023/07/18 09:20:32;;;;;;;;;22.50;21.75;;;;;;;;6486574;39;8913;-54
2023/07/18 09:26:34;;;;;;;;;24.75;22.25;;;;;;;;6484546;31;8953;-52
2023/07/18 09:32:39;;;;;;;;;20.50;20.00;;;;;;;;6487325;31;9568;-55
2023/07/18 09:38:43;;;;;;;;;20.50;20.50;;;;;;;;6486420;39;8881;-55
2023/07/18 09:44:50;;;;;;;;;18.00;17.00;;;;;;;;6485612;31;8934;-54
2023/07/18 09:50:57;;;;;;;;;18.75;18.75;;;;;;;;6487089;39;8918;-54
2023/07/18 09:57:05;;;;;;;;;20.75;20.75;;;;;;;;6486673;39;8922;-51
2023/07/18 10:03:09;;;;;;;;;21.25;20.75;;;;;;;;6485609;39;8991;-52
2023/07/18 10:09:13;;;;;;;;;21.25;21.25;;;;;;;;6485667;39;9046;-55
2023/07/18 10:15:16;;;;;;;;;18.75;18.75;;;;;;;;6486374;39;9067;-53
2023/07/18 10:21:33;;;;;;;;;22.00;21.25;;;;;;;;6487182;39;8897;-55
2023/07/18 10:27:43;;;;;;;;;23.25;23.00;;;;;;;;6486740;31;9716;-54
2023/07/18 10:34:15;;;;;;;;;23.50;21.50;;;;;;;;6485536;31;8926;-54
2023/07/18 10:40:52;;;;;;;;;21.75;21.75;;;;;;;;6481025;46;9000;-55
2023/07/18 10:46:54;;;;;;;;;20.00;18.75;;;;;;;;6485946;39;9534;-52
2023/07/18 10:52:57;;;;;;;;;21.75;21.75;;;;;;;;6487791;31;9280;-52
2023/07/18 10:58:59;;;;;;;;;20.25;17.50;;;;;;;;6487064;46;8973;-54
2023/07/18 11:05:06;;;;;;;;;20.25;18.75;;;;;;;;6486397;39;8921;-53
2023/07/18 11:11:11;;;;;;;;;20.25;18.00;;;;;;;;6484404;46;8961;-55
2023/07/18 11:17:17;;;;;;;;;22.25;20.50;;;;;;;;6486546;39;8965;-55
2023/07/18 11:23:21;;;;;;;;;20.50;18.75;;;;;;;;6485557;46;8993;-56
2023/07/18 11:29:27;;;;;;;;;18.50;18.50;;;;;;;;6484719;39;9003;-54
2023/07/18 11:35:50;;;;;;;;;27.50;25.50;;;;;;;;6483903;39;8947;-56
2023/07/18 11:42:06;;;;;;;;;25.00;23.25;;;;;;;;6485968;39;8945;-54
2023/07/18 11:48:08;;;;;;;;;21.50;21.25;;;;;;;;6485743;39;8906;-56
2023/07/18 11:54:11;;;;;;;;;23.00;22.00;;;;;;;;6484407;39;9031;-52
2023/07/18 12:00:16;;;;;;;;;18.00;18.00;;;;;;;;6483746;39;8958;-56
2023/07/18 12:06:19;;;;;;;;;24.25;23.50;;;;;;;;6482879;47;9020;-53
2023/07/18 12:12:23;;;;;;;;;23.75;23.00;;;;;;;;6483630;39;9165;-57
2023/07/18 12:18:27;;;;;;;;;22.50;22.50;;;;;;;;6482849;39;8948;-53
2023/07/18 12:24:29;;;;;;;;;22.25;21.50;;;;;;;;6485411;39;9612;-53
2023/07/18 12:30:34;;;;;;;;;22.75;22.25;;;;;;;;6488012;39;9679;-53
2023/07/18 12:36:37;;;;;;;;;19.50;18.25;;;;;;;;7785156;36;8940;-54
2023/07/18 12:42:39;;;;;;;;;16.50;15.50;;;;;;;;6904328;31;8934;-54
2023/07/18 12:48:41;;;;;;;;;15.00;13.25;;;;;;;;6488080;39;8937;-56
2023/07/18 12:54:47;;;;;;;;;16.00;15.00;;;;;;;;6512483;31;9611;-51
2023/07/18 13:00:49;;;;;;;;;13.00;12.50;;;;;;;;6488303;39;8928;-54
2023/07/18 13:06:51;;;;;;;;;14.75;14.75;;;;;;;;6487390;46;8951;-52
2023/07/18 13:12:54;;;;;;;;;16.75;16.50;;;;;;;;6488106;39;8993;-51
2023/07/18 13:18:56;;;;;;;;;14.00;13.75;;;;;;;;6488990;39;8972;-52
2023/07/18 13:24:58;;;;;;;;;12.50;12.50;;;;;;;;6488225;39;8902;-51
2023/07/18 13:31:01;;;;;;;;;14.75;13.75;;;;;;;;6491693;31;8920;-53
2023/07/18 13:37:03;;;;;;;;;16.00;15.00;;;;;;;;6485692;39;8880;-52
2023/07/18 13:43:06;;;;;;;;;20.25;19.25;;;;;;;;6487149;46;8948;-53
2023/07/18 13:49:08;;;;;;;;;15.33;15.33;;;;;;;;6488094;31;9021;-53
2023/07/18 13:55:10;;;;;;;;;19.75;18.75;;;;;;;;6487176;31;9091;-55
2023/07/18 14:01:12;;;;;;;;;17.25;16.75;;;;;;;;6487410;46;8969;-54
2023/07/18 14:14:33;;;;;;;;;18.00;17.25;;;;;;;;6484054;39;9009;-54
2023/07/18 14:20:38;;;;;;;;;15.50;14.50;;;;;;;;6484432;40;9558;-53
2023/07/18 14:26:41;;;;;;;;;16.25;15.25;;;;;;;;6487511;39;8923;-51
2023/07/18 14:32:43;;;;;;;;;13.25;13.25;;;;;;;;6487746;39;8872;-52
2023/07/18 14:38:46;;;;;;;;;11.25;10.00;;;;;;;;6487724;31;8923;-52
2023/07/18 14:44:48;;;;;;;;;12.75;12.50;;;;;;;;6485704;31;9179;-53
2023/07/18 14:50:51;;;;;;;;;10.25;10.25;;;;;;;;6486985;39;8919;-53
2023/07/18 14:56:54;;;;;;;;;12.00;11.25;;;;;;;;6487636;39;9019;-53
2023/07/18 15:02:58;;;;;;;;;10.00;10.00;;;;;;;;6485464;31;8973;-55
2023/07/18 15:09:02;;;;;;;;;10.25;9.50;;;;;;;;6487537;39;8879;-53
2023/07/18 15:15:06;;;;;;;;;9.00;9.00;;;;;;;;6488320;39;8959;-53
2023/07/18 15:21:11;;;;;;;;;12.00;11.75;;;;;;;;6487735;39;8915;-52
2023/07/18 15:27:15;;;;;;;;;12.00;12.00;;;;;;;;8202687;36;8934;-52
2023/07/18 15:33:18;;;;;;;;;8.50;8.50;;;;;;;;6486719;46;8945;-55
2023/07/18 15:39:28;;;;;;;;;12.50;11.50;;;;;;;;6486611;39;8935;-54
2023/07/18 15:45:30;;;;;;;;;14.50;13.00;;;;;;;;6486262;39;9595;-54
2023/07/18 15:51:32;;;;;;;;;14.00;11.25;;;;;;;;6487938;39;8891;-52
2023/07/18 15:57:34;;;;;;;;;8.00;8.00;;;;;;;;6486923;39;8963;-53
2023/07/18 16:03:37;;;;;;;;;10.50;9.50;;;;;;;;6486654;31;8953;-55
2023/07/18 16:09:50;;;;;;;;;11.50;10.50;;;;;;;;6486536;39;8935;-55
2023/07/18 16:15:54;;;;;;;;;11.50;10.50;;;;;;;;6488118;39;8941;-53
2023/07/18 16:21:56;;;;;;;;;17.50;11.00;;;;;;;;6487541;39;8843;-54
2023/07/18 16:27:58;;;;;;;;;8.75;7.75;;;;;;;;6486355;39;8954;-54
2023/07/18 16:34:01;;;;;;;;;11.50;11.50;;;;;;;;6486855;47;8995;-53
2023/07/18 16:40:05;;;;;;;;;10.25;10.25;;;;;;;;6485164;47;8954;-55
2023/07/18 16:46:07;;;;;;;;;10.50;10.50;;;;;;;;6487271;47;8863;-51
2023/07/18 16:52:09;;;;;;;;;9.75;9.75;;;;;;;;6486902;39;8935;-54
2023/07/18 16:58:13;;;;;;;;;12.00;10.25;;;;;;;;6484880;47;8903;-54
2023/07/18 17:04:18;;;;;;;;;11.67;9.33;;;;;;;;6486597;39;8891;-55
2023/07/18 17:10:20;;;;;;;;;8.75;8.00;;;;;;;;6486440;39;9125;-54
2023/07/18 17:16:22;;;;;;;;;11.25;11.25;;;;;;;;6486286;46;8911;-54
2023/07/18 17:22:25;;;;;;;;;11.25;9.75;;;;;;;;6487534;31;8883;-54
2023/07/18 17:28:29;;;;;;;;;10.50;9.25;;;;;;;;6487725;39;8986;-52
2023/07/18 17:34:35;;;;;;;;;9.25;9.25;;;;;;;;6487877;31;8871;-55
2023/07/18 17:40:37;;;;;;;;;7.00;7.00;;;;;;;;6487446;31;8848;-56
2023/07/18 17:46:39;;;;;;;;;11.50;11.50;;;;;;;;6486980;46;8871;-52
2023/07/18 17:52:42;;;;;;;;;8.00;7.67;;;;;;;;6486434;39;8856;-55
2023/07/18 17:58:46;;;;;;;;;8.75;8.75;;;;;;;;6487578;46;8899;-51
2023/07/18 18:04:50;;;;;;;;;9.50;8.75;;;;;;;;6486929;39;9511;-51
2023/07/18 18:10:53;;;;;;;;;8.50;8.50;;;;;;;;6487947;39;8935;-50
2023/07/18 18:16:55;;;;;;;;;7.75;7.75;;;;;;;;6488206;39;8904;-51
2023/07/18 18:23:00;;;;;;;;;9.75;9.75;;;;;;;;6486865;39;9066;-53
2023/07/18 18:29:05;;;;;;;;;11.25;11.25;;;;;;;;6486845;39;8915;-54
2023/07/18 18:35:08;;;;;;;;;10.00;10.00;;;;;;;;6486555;46;8923;-53
2023/07/18 18:41:10;;;;;;;;;11.75;10.75;;;;;;;;6487046;39;8970;-55
2023/07/18 18:47:13;;;;;;;;;9.25;9.00;;;;;;;;6486138;46;8883;-53
2023/07/18 18:53:16;;;;;;;;;11.25;11.25;;;;;;;;6486165;39;8971;-55
2023/07/18 18:59:19;;;;;;;;;11.75;9.75;;;;;;;;6486096;46;8847;-55
2023/07/18 19:05:22;;;;;;;;;8.75;8.75;;;;;;;;6484890;46;8993;-51
2023/07/18 19:11:25;;;;;;;;;9.50;8.75;;;;;;;;6486528;46;8927;-53
2023/07/18 19:17:27;;;;;;;;;11.50;8.50;;;;;;;;6487245;39;8982;-54
2023/07/18 19:23:30;;;;;;;;;12.25;12.25;;;;;;;;6485374;39;8879;-54
2023/07/18 19:29:34;;;;;;;;;10.00;8.75;;;;;;;;6486284;46;8860;-56
2023/07/18 19:35:36;;;;;;;;;11.75;10.50;;;;;;;;6484636;46;8938;-51
2023/07/18 19:41:38;;;;;;;;;13.75;11.25;;;;;;;;6486784;46;8926;-53
2023/07/18 19:47:41;;;;;;;;;9.25;9.25;;;;;;;;6486936;39;8880;-51
2023/07/18 19:53:43;;;;;;;;;8.50;7.00;;;;;;;;6485936;31;8971;-51
2023/07/18 19:59:47;;;;;;;;;11.25;11.25;;;;;;;;6485092;39;9494;-54
2023/07/18 20:05:50;;;;;;;;;15.00;15.00;;;;;;;;6486249;39;8891;-53
2023/07/18 20:11:53;;;;;;;;;9.75;9.75;;;;;;;;6484430;46;8919;-51
2023/07/18 20:18:04;;;;;;;;;11.25;10.00;;;;;;;;6485888;39;9138;-53
2023/07/18 20:24:07;;;;;;;;;12.75;9.50;;;;;;;;6485212;39;8951;-53
2023/07/18 20:30:10;;;;;;;;;10.50;10.50;;;;;;;;6485552;47;8908;-53
2023/07/18 20:36:12;;;;;;;;;11.25;11.25;;;;;;;;6486353;39;8856;-54
2023/07/18 20:42:16;;;;;;;;;11.25;11.25;;;;;;;;6485998;39;9535;-54
2023/07/18 20:48:18;;;;;;;;;9.00;7.75;;;;;;;;6486067;39;8875;-52
2023/07/18 20:54:21;;;;;;;;;11.75;11.75;;;;;;;;6486547;46;8947;-53
2023/07/18 21:00:23;;;;;;;;;14.25;11.00;;;;;;;;6486667;46;8847;-54
2023/07/18 21:06:26;;;;;;;;;10.25;10.25;;;;;;;;6487570;31;8868;-54
2023/07/18 21:12:29;;;;;;;;;10.00;10.00;;;;;;;;6487787;39;8938;-54
2023/07/18 21:18:31;;;;;;;;;10.00;9.75;;;;;;;;6488763;39;9010;-54
2023/07/18 21:24:33;;;;;;;;;9.25;9.25;;;;;;;;6487887;39;8887;-52
2023/07/18 21:30:35;;;;;;;;;11.75;10.00;;;;;;;;6487580;39;8957;-54
2023/07/18 21:36:39;;;;;;;;;10.75;9.50;;;;;;;;6488175;39;9467;-54
2023/07/18 21:42:42;;;;;;;;;6.00;6.00;;;;;;;;6487241;31;9003;-54
2023/07/18 21:48:44;;;;;;;;;9.25;9.25;;;;;;;;6486371;46;8903;-54
2023/07/18 21:54:47;;;;;;;;;9.75;9.75;;;;;;;;6487391;39;8951;-52
2023/07/18 22:00:49;;;;;;;;;7.75;7.75;;;;;;;;6486551;46;8954;-53
2023/07/18 22:06:51;;;;;;;;;11.50;11.50;;;;;;;;6487315;39;8856;-53
2023/07/18 22:12:58;;;;;;;;;11.25;10.25;;;;;;;;6487978;31;9079;-53
2023/07/18 22:19:00;;;;;;;;;9.25;9.25;;;;;;;;6488250;46;8904;-54
2023/07/18 22:25:04;;;;;;;;;4.00;4.00;;;;;;;;6487423;31;8884;-54
2023/07/18 22:31:06;;;;;;;;;9.50;9.00;;;;;;;;6487315;39;8839;-52
2023/07/18 22:37:10;;;;;;;;;7.25;7.25;;;;;;;;6486682;31;8851;-52
2023/07/18 22:43:13;;;;;;;;;9.00;9.00;;;;;;;;6486927;46;8892;-53
2023/07/18 22:49:16;;;;;;;;;7.00;6.25;;;;;;;;6486746;39;8875;-52
2023/07/18 22:55:19;;;;;;;;;10.75;9.25;;;;;;;;6487172;39;9142;-53
2023/07/18 23:01:21;;;;;;;;;11.00;10.25;;;;;;;;6485586;31;9018;-53
2023/07/18 23:07:26;;;;;;;;;9.50;9.50;;;;;;;;6486427;39;8911;-56
2023/07/18 23:13:29;;;;;;;;;9.25;9.25;;;;;;;;6486536;39;8927;-52
2023/07/18 23:19:33;;;;;;;;;14.25;10.75;;;;;;;;6485149;39;8849;-54
2023/07/18 23:25:36;;;;;;;;;11.25;10.75;;;;;;;;6486967;39;8887;-52
2023/07/18 23:31:38;;;;;;;;;12.25;10.25;;;;;;;;6486046;39;8849;-54
2023/07/18 23:37:41;;;;;;;;;12.25;12.25;;;;;;;;6486722;46;8857;-54
2023/07/18 23:43:45;;;;;;;;;13.25;13.25;;;;;;;;6487609;31;8838;-52
2023/07/18 23:49:50;;;;;;;;;12.00;10.75;;;;;;;;6486480;39;9549;-50
2023/07/18 23:55:52;;;;;;;;;12.00;12.00;;;;;;;;6487028;31;8905;-54
